sensor_id;sensor_type;location;lat;lon;timestamp;temperature;humidity
30244;DHT22;61465;53.652;9.792;2022-08-19T00:01:30;20.90;88.90
30244;DHT22;61465;53.652;9.792;2022-08-19T00:04:01;20.90;88.90
30244;DHT22;61465;53.652;9.792;2022-08-19T00:06:28;20.90;88.90
30244;DHT22;61465;53.652;9.792;2022-08-19T00:08:54;20.90;89.00
30244;DHT22;61465;53.652;9.792;2022-08-19T00:11:21;20.90;89.00
30244;DHT22;61465;53.652;9.792;2022-08-19T00:13:47;20.90;89.10
30244;DHT22;61465;53.652;9.792;2022-08-19T00:16:16;20.90;89.10
30244;DHT22;61465;53.652;9.792;2022-08-19T00:18:44;20.90;89.10
30244;DHT22;61465;53.652;9.792;2022-08-19T00:21:10;20.80;89.00
30244;DHT22;61465;53.652;9.792;2022-08-19T00:23:36;20.80;89.10
30244;DHT22;61465;53.652;9.792;2022-08-19T00:26:05;20.90;89.20
30244;DHT22;61465;53.652;9.792;2022-08-19T00:28:32;20.80;89.20
30244;DHT22;61465;53.652;9.792;2022-08-19T00:30:59;20.80;89.30
30244;DHT22;61465;53.652;9.792;2022-08-19T00:33:25;20.80;89.30
30244;DHT22;61465;53.652;9.792;2022-08-19T00:35:51;20.80;89.30
30244;DHT22;61465;53.652;9.792;2022-08-19T00:38:16;20.80;89.40
30244;DHT22;61465;53.652;9.792;2022-08-19T00:40:43;20.80;89.50
30244;DHT22;61465;53.652;9.792;2022-08-19T00:43:13;20.80;89.50
30244;DHT22;61465;53.652;9.792;2022-08-19T00:45:39;20.80;89.60
30244;DHT22;61465;53.652;9.792;2022-08-19T00:48:07;20.80;89.60
30244;DHT22;61465;53.652;9.792;2022-08-19T00:50:34;20.70;89.70
30244;DHT22;61465;53.652;9.792;2022-08-19T00:53:00;20.80;89.80
30244;DHT22;61465;53.652;9.792;2022-08-19T00:55:31;20.80;89.80
30244;DHT22;61465;53.652;9.792;2022-08-19T00:58:07;20.80;89.90
30244;DHT22;61465;53.652;9.792;2022-08-19T01:00:34;20.70;89.90
30244;DHT22;61465;53.652;9.792;2022-08-19T01:03:11;20.70;89.90
30244;DHT22;61465;53.652;9.792;2022-08-19T01:05:37;20.70;89.90
30244;DHT22;61465;53.652;9.792;2022-08-19T01:08:05;20.70;90.00
30244;DHT22;61465;53.652;9.792;2022-08-19T01:10:37;20.70;90.10
30244;DHT22;61465;53.652;9.792;2022-08-19T01:13:03;20.70;90.10
30244;DHT22;61465;53.652;9.792;2022-08-19T01:15:32;20.70;90.20
30244;DHT22;61465;53.652;9.792;2022-08-19T01:18:06;20.70;90.20
30244;DHT22;61465;53.652;9.792;2022-08-19T01:20:32;20.60;90.10
30244;DHT22;61465;53.652;9.792;2022-08-19T01:23:00;20.60;90.20
30244;DHT22;61465;53.652;9.792;2022-08-19T01:25:31;20.60;90.20
30244;DHT22;61465;53.652;9.792;2022-08-19T01:27:57;20.70;90.20
30244;DHT22;61465;53.652;9.792;2022-08-19T01:30:27;20.70;90.30
30244;DHT22;61465;53.652;9.792;2022-08-19T01:32:53;20.60;90.30
30244;DHT22;61465;53.652;9.792;2022-08-19T01:35:20;20.60;90.30
30244;DHT22;61465;53.652;9.792;2022-08-19T01:37:59;20.60;90.40
30244;DHT22;61465;53.652;9.792;2022-08-19T01:40:28;20.60;90.30
30244;DHT22;61465;53.652;9.792;2022-08-19T01:42:54;20.60;90.50
30244;DHT22;61465;53.652;9.792;2022-08-19T01:45:21;20.60;90.50
30244;DHT22;61465;53.652;9.792;2022-08-19T01:47:47;20.60;90.50
30244;DHT22;61465;53.652;9.792;2022-08-19T01:50:13;20.50;90.50
30244;DHT22;61465;53.652;9.792;2022-08-19T01:52:40;20.50;90.50
30244;DHT22;61465;53.652;9.792;2022-08-19T01:55:09;20.50;90.60
30244;DHT22;61465;53.652;9.792;2022-08-19T01:57:35;20.50;90.60
30244;DHT22;61465;53.652;9.792;2022-08-19T02:00:02;20.50;90.70
30244;DHT22;61465;53.652;9.792;2022-08-19T02:02:30;20.50;90.70
30244;DHT22;61465;53.652;9.792;2022-08-19T02:04:56;20.50;90.70
30244;DHT22;61465;53.652;9.792;2022-08-19T02:07:21;20.50;90.70
30244;DHT22;61465;53.652;9.792;2022-08-19T02:09:47;20.50;90.80
30244;DHT22;61465;53.652;9.792;2022-08-19T02:12:14;20.50;90.80
30244;DHT22;61465;53.652;9.792;2022-08-19T02:14:40;20.50;90.80
30244;DHT22;61465;53.652;9.792;2022-08-19T02:17:05;20.50;90.80
30244;DHT22;61465;53.652;9.792;2022-08-19T02:19:31;20.40;90.80
30244;DHT22;61465;53.652;9.792;2022-08-19T02:21:58;20.40;90.80
30244;DHT22;61465;53.652;9.792;2022-08-19T02:24:24;20.40;90.90
30244;DHT22;61465;53.652;9.792;2022-08-19T02:26:49;20.40;91.10
30244;DHT22;61465;53.652;9.792;2022-08-19T02:29:15;20.40;90.90
30244;DHT22;61465;53.652;9.792;2022-08-19T02:31:40;20.40;90.90
30244;DHT22;61465;53.652;9.792;2022-08-19T02:34:06;20.40;91.00
30244;DHT22;61465;53.652;9.792;2022-08-19T02:36:32;20.40;91.00
30244;DHT22;61465;53.652;9.792;2022-08-19T02:38:57;20.40;91.00
30244;DHT22;61465;53.652;9.792;2022-08-19T02:41:26;20.40;91.00
30244;DHT22;61465;53.652;9.792;2022-08-19T02:43:52;20.40;91.10
30244;DHT22;61465;53.652;9.792;2022-08-19T02:46:27;20.30;91.00
30244;DHT22;61465;53.652;9.792;2022-08-19T02:48:56;20.30;91.00
30244;DHT22;61465;53.652;9.792;2022-08-19T02:51:33;20.30;91.30
30244;DHT22;61465;53.652;9.792;2022-08-19T02:53:59;20.30;91.10
30244;DHT22;61465;53.652;9.792;2022-08-19T02:56:25;20.30;91.10
30244;DHT22;61465;53.652;9.792;2022-08-19T02:58:54;20.30;91.10
30244;DHT22;61465;53.652;9.792;2022-08-19T03:01:31;20.20;91.20
30244;DHT22;61465;53.652;9.792;2022-08-19T03:03:59;20.30;91.20
30244;DHT22;61465;53.652;9.792;2022-08-19T03:06:26;20.20;91.20
30244;DHT22;61465;53.652;9.792;2022-08-19T03:08:52;20.20;91.30
30244;DHT22;61465;53.652;9.792;2022-08-19T03:11:23;20.20;91.30
30244;DHT22;61465;53.652;9.792;2022-08-19T03:13:50;20.20;91.30
30244;DHT22;61465;53.652;9.792;2022-08-19T03:16:18;20.20;91.30
30244;DHT22;61465;53.652;9.792;2022-08-19T03:18:44;20.10;91.30
30244;DHT22;61465;53.652;9.792;2022-08-19T03:21:14;20.20;91.60
30244;DHT22;61465;53.652;9.792;2022-08-19T03:23:40;20.10;91.30
30244;DHT22;61465;53.652;9.792;2022-08-19T03:26:05;20.10;91.40
30244;DHT22;61465;53.652;9.792;2022-08-19T03:28:31;20.10;91.40
30244;DHT22;61465;53.652;9.792;2022-08-19T03:31:07;20.10;91.40
30244;DHT22;61465;53.652;9.792;2022-08-19T03:33:34;20.10;91.50
30244;DHT22;61465;53.652;9.792;2022-08-19T03:36:02;20.10;91.50
30244;DHT22;61465;53.652;9.792;2022-08-19T03:38:28;20.10;91.50
30244;DHT22;61465;53.652;9.792;2022-08-19T03:40:54;20.10;91.60
30244;DHT22;61465;53.652;9.792;2022-08-19T03:43:19;20.10;91.60
30244;DHT22;61465;53.652;9.792;2022-08-19T03:45:45;20.10;91.60
30244;DHT22;61465;53.652;9.792;2022-08-19T03:48:10;20.10;91.60
30244;DHT22;61465;53.652;9.792;2022-08-19T03:50:39;20.00;91.60
30244;DHT22;61465;53.652;9.792;2022-08-19T03:53:05;20.00;91.60
30244;DHT22;61465;53.652;9.792;2022-08-19T03:55:32;20.10;91.80
30244;DHT22;61465;53.652;9.792;2022-08-19T03:57:58;20.00;91.80
30244;DHT22;61465;53.652;9.792;2022-08-19T04:00:24;20.10;91.80
30244;DHT22;61465;53.652;9.792;2022-08-19T04:02:50;20.00;91.90
30244;DHT22;61465;53.652;9.792;2022-08-19T04:05:15;20.10;91.90
30244;DHT22;61465;53.652;9.792;2022-08-19T04:07:41;20.00;92.00
30244;DHT22;61465;53.652;9.792;2022-08-19T04:10:07;20.00;92.00
30244;DHT22;61465;53.652;9.792;2022-08-19T04:12:32;20.00;92.00
30244;DHT22;61465;53.652;9.792;2022-08-19T04:14:58;20.00;92.00
30244;DHT22;61465;53.652;9.792;2022-08-19T04:17:23;20.10;92.00
30244;DHT22;61465;53.652;9.792;2022-08-19T04:19:49;20.00;92.00
30244;DHT22;61465;53.652;9.792;2022-08-19T04:22:15;20.00;92.10
30244;DHT22;61465;53.652;9.792;2022-08-19T04:24:40;20.00;92.10
30244;DHT22;61465;53.652;9.792;2022-08-19T04:27:06;20.00;92.10
30244;DHT22;61465;53.652;9.792;2022-08-19T04:29:32;20.00;92.10
30244;DHT22;61465;53.652;9.792;2022-08-19T04:31:58;20.00;92.20
30244;DHT22;61465;53.652;9.792;2022-08-19T04:34:26;20.00;92.20
30244;DHT22;61465;53.652;9.792;2022-08-19T04:36:54;20.10;92.20
30244;DHT22;61465;53.652;9.792;2022-08-19T04:39:23;20.00;92.30
30244;DHT22;61465;53.652;9.792;2022-08-19T04:42:09;20.00;92.30
30244;DHT22;61465;53.652;9.792;2022-08-19T04:44:57;20.10;92.30
30244;DHT22;61465;53.652;9.792;2022-08-19T04:47:23;20.00;92.20
30244;DHT22;61465;53.652;9.792;2022-08-19T04:49:49;20.00;92.20
30244;DHT22;61465;53.652;9.792;2022-08-19T04:52:15;20.00;92.20
30244;DHT22;61465;53.652;9.792;2022-08-19T04:54:40;20.00;92.30
30244;DHT22;61465;53.652;9.792;2022-08-19T04:57:07;20.10;92.50
30244;DHT22;61465;53.652;9.792;2022-08-19T04:59:34;20.00;92.30
30244;DHT22;61465;53.652;9.792;2022-08-19T05:02:00;20.00;92.30
30244;DHT22;61465;53.652;9.792;2022-08-19T05:04:26;20.00;92.30
30244;DHT22;61465;53.652;9.792;2022-08-19T05:06:51;20.00;92.30
30244;DHT22;61465;53.652;9.792;2022-08-19T05:09:18;20.00;92.30
30244;DHT22;61465;53.652;9.792;2022-08-19T05:11:44;20.00;92.40
30244;DHT22;61465;53.652;9.792;2022-08-19T05:14:10;20.00;92.40
30244;DHT22;61465;53.652;9.792;2022-08-19T05:16:38;19.90;92.30
30244;DHT22;61465;53.652;9.792;2022-08-19T05:19:03;19.90;92.40
30244;DHT22;61465;53.652;9.792;2022-08-19T05:21:47;19.90;92.40
30244;DHT22;61465;53.652;9.792;2022-08-19T05:24:32;19.90;92.50
30244;DHT22;61465;53.652;9.792;2022-08-19T05:27:00;19.90;92.50
30244;DHT22;61465;53.652;9.792;2022-08-19T05:29:28;19.90;92.50
30244;DHT22;61465;53.652;9.792;2022-08-19T05:31:55;19.80;92.60
30244;DHT22;61465;53.652;9.792;2022-08-19T05:34:22;19.80;92.70
30244;DHT22;61465;53.652;9.792;2022-08-19T05:36:52;19.80;92.70
30244;DHT22;61465;53.652;9.792;2022-08-19T05:39:21;19.90;92.70
30244;DHT22;61465;53.652;9.792;2022-08-19T05:41:53;19.90;92.80
30244;DHT22;61465;53.652;9.792;2022-08-19T05:44:23;19.90;92.80
30244;DHT22;61465;53.652;9.792;2022-08-19T05:46:49;19.90;92.80
30244;DHT22;61465;53.652;9.792;2022-08-19T05:49:20;19.90;92.90
30244;DHT22;61465;53.652;9.792;2022-08-19T05:51:46;19.80;92.90
30244;DHT22;61465;53.652;9.792;2022-08-19T05:54:12;19.90;92.90
30244;DHT22;61465;53.652;9.792;2022-08-19T05:56:42;19.90;93.00
30244;DHT22;61465;53.652;9.792;2022-08-19T05:59:09;19.90;93.00
30244;DHT22;61465;53.652;9.792;2022-08-19T06:01:38;19.90;93.00
30244;DHT22;61465;53.652;9.792;2022-08-19T06:04:05;19.90;93.10
30244;DHT22;61465;53.652;9.792;2022-08-19T06:06:31;19.90;93.10
30244;DHT22;61465;53.652;9.792;2022-08-19T06:09:00;19.90;92.50
30244;DHT22;61465;53.652;9.792;2022-08-19T06:11:34;19.90;93.10
30244;DHT22;61465;53.652;9.792;2022-08-19T06:14:05;19.90;93.10
30244;DHT22;61465;53.652;9.792;2022-08-19T06:16:34;19.90;93.10
30244;DHT22;61465;53.652;9.792;2022-08-19T06:19:02;19.90;93.10
30244;DHT22;61465;53.652;9.792;2022-08-19T06:21:30;19.90;93.10
30244;DHT22;61465;53.652;9.792;2022-08-19T06:23:56;19.90;93.10
30244;DHT22;61465;53.652;9.792;2022-08-19T06:26:23;19.90;93.20
30244;DHT22;61465;53.652;9.792;2022-08-19T06:28:49;19.90;93.20
30244;DHT22;61465;53.652;9.792;2022-08-19T06:31:17;19.90;93.20
30244;DHT22;61465;53.652;9.792;2022-08-19T06:33:45;20.00;93.20
30244;DHT22;61465;53.652;9.792;2022-08-19T06:36:29;19.90;93.30
30244;DHT22;61465;53.652;9.792;2022-08-19T06:39:00;20.00;93.20
30244;DHT22;61465;53.652;9.792;2022-08-19T06:41:27;20.00;92.80
30244;DHT22;61465;53.652;9.792;2022-08-19T06:43:53;20.00;93.30
30244;DHT22;61465;53.652;9.792;2022-08-19T06:46:19;20.00;93.60
30244;DHT22;61465;53.652;9.792;2022-08-19T06:48:46;20.10;93.40
30244;DHT22;61465;53.652;9.792;2022-08-19T06:51:13;20.10;93.40
30244;DHT22;61465;53.652;9.792;2022-08-19T06:53:41;20.10;93.40
30244;DHT22;61465;53.652;9.792;2022-08-19T06:56:12;20.10;93.40
30244;DHT22;61465;53.652;9.792;2022-08-19T06:58:38;20.10;93.40
30244;DHT22;61465;53.652;9.792;2022-08-19T07:01:04;20.20;93.40
30244;DHT22;61465;53.652;9.792;2022-08-19T07:03:31;20.20;93.40
30244;DHT22;61465;53.652;9.792;2022-08-19T07:06:05;20.30;93.40
30244;DHT22;61465;53.652;9.792;2022-08-19T07:08:32;20.30;93.50
30244;DHT22;61465;53.652;9.792;2022-08-19T07:10:57;20.30;93.50
30244;DHT22;61465;53.652;9.792;2022-08-19T07:13:24;20.30;93.40
30244;DHT22;61465;53.652;9.792;2022-08-19T07:15:50;20.40;93.40
30244;DHT22;61465;53.652;9.792;2022-08-19T07:18:20;20.40;93.40
30244;DHT22;61465;53.652;9.792;2022-08-19T07:20:47;20.40;93.40
30244;DHT22;61465;53.652;9.792;2022-08-19T07:23:12;20.40;93.40
30244;DHT22;61465;53.652;9.792;2022-08-19T07:25:38;20.40;93.40
30244;DHT22;61465;53.652;9.792;2022-08-19T07:28:04;20.40;93.40
30244;DHT22;61465;53.652;9.792;2022-08-19T07:30:30;20.50;93.40
30244;DHT22;61465;53.652;9.792;2022-08-19T07:32:56;20.50;93.40
30244;DHT22;61465;53.652;9.792;2022-08-19T07:35:22;20.50;93.40
30244;DHT22;61465;53.652;9.792;2022-08-19T07:37:48;20.50;93.40
30244;DHT22;61465;53.652;9.792;2022-08-19T07:40:14;20.60;93.50
30244;DHT22;61465;53.652;9.792;2022-08-19T07:42:43;20.60;93.50
30244;DHT22;61465;53.652;9.792;2022-08-19T07:45:11;20.60;93.50
30244;DHT22;61465;53.652;9.792;2022-08-19T07:47:37;20.70;93.50
30244;DHT22;61465;53.652;9.792;2022-08-19T07:50:05;20.70;93.40
30244;DHT22;61465;53.652;9.792;2022-08-19T07:52:31;20.70;93.40
30244;DHT22;61465;53.652;9.792;2022-08-19T07:54:57;20.70;93.40
30244;DHT22;61465;53.652;9.792;2022-08-19T07:57:25;20.70;93.40
30244;DHT22;61465;53.652;9.792;2022-08-19T07:59:50;20.70;93.40
30244;DHT22;61465;53.652;9.792;2022-08-19T08:02:19;20.70;93.40
30244;DHT22;61465;53.652;9.792;2022-08-19T08:04:44;20.70;93.40
30244;DHT22;61465;53.652;9.792;2022-08-19T08:07:29;20.70;93.40
30244;DHT22;61465;53.652;9.792;2022-08-19T08:10:13;20.80;93.40
30244;DHT22;61465;53.652;9.792;2022-08-19T08:12:40;20.70;93.40
30244;DHT22;61465;53.652;9.792;2022-08-19T08:15:11;20.70;93.40
30244;DHT22;61465;53.652;9.792;2022-08-19T08:17:37;20.80;93.40
30244;DHT22;61465;53.652;9.792;2022-08-19T08:20:05;20.80;93.40
30244;DHT22;61465;53.652;9.792;2022-08-19T08:22:34;20.80;93.40
30244;DHT22;61465;53.652;9.792;2022-08-19T08:25:21;20.90;93.40
30244;DHT22;61465;53.652;9.792;2022-08-19T08:27:48;20.90;93.40
30244;DHT22;61465;53.652;9.792;2022-08-19T08:30:24;20.90;93.40
30244;DHT22;61465;53.652;9.792;2022-08-19T08:32:52;20.90;93.40
30244;DHT22;61465;53.652;9.792;2022-08-19T08:35:21;20.90;93.20
30244;DHT22;61465;53.652;9.792;2022-08-19T08:37:49;20.90;93.40
30244;DHT22;61465;53.652;9.792;2022-08-19T08:40:28;20.90;93.40
30244;DHT22;61465;53.652;9.792;2022-08-19T08:45:35;20.90;93.40
30244;DHT22;61465;53.652;9.792;2022-08-19T08:48:12;21.00;93.40
30244;DHT22;61465;53.652;9.792;2022-08-19T08:50:42;21.00;93.40
30244;DHT22;61465;53.652;9.792;2022-08-19T08:53:17;21.00;93.40
30244;DHT22;61465;53.652;9.792;2022-08-19T08:55:43;21.00;93.30
30244;DHT22;61465;53.652;9.792;2022-08-19T08:58:14;21.00;93.30
30244;DHT22;61465;53.652;9.792;2022-08-19T09:00:45;21.00;93.30
30244;DHT22;61465;53.652;9.792;2022-08-19T09:03:22;21.00;93.30
30244;DHT22;61465;53.652;9.792;2022-08-19T09:11:25;21.10;93.20
30244;DHT22;61465;53.652;9.792;2022-08-19T09:14:34;21.10;93.10
30244;DHT22;61465;53.652;9.792;2022-08-19T09:17:00;21.20;93.40
30244;DHT22;61465;53.652;9.792;2022-08-19T09:19:28;21.20;93.50
30244;DHT22;61465;53.652;9.792;2022-08-19T09:21:54;21.30;93.50
30244;DHT22;61465;53.652;9.792;2022-08-19T09:24:20;21.40;93.50
30244;DHT22;61465;53.652;9.792;2022-08-19T09:26:45;21.40;93.50
30244;DHT22;61465;53.652;9.792;2022-08-19T09:29:11;21.40;93.40
30244;DHT22;61465;53.652;9.792;2022-08-19T09:31:37;21.40;93.50
30244;DHT22;61465;53.652;9.792;2022-08-19T09:34:03;21.40;93.60
30244;DHT22;61465;53.652;9.792;2022-08-19T09:36:30;21.40;93.40
30244;DHT22;61465;53.652;9.792;2022-08-19T09:38:58;21.50;93.40
30244;DHT22;61465;53.652;9.792;2022-08-19T09:41:25;21.40;93.40
30244;DHT22;61465;53.652;9.792;2022-08-19T09:43:53;21.40;93.40
30244;DHT22;61465;53.652;9.792;2022-08-19T09:46:21;21.40;93.40
30244;DHT22;61465;53.652;9.792;2022-08-19T09:48:48;21.50;93.50
30244;DHT22;61465;53.652;9.792;2022-08-19T09:51:17;21.50;93.50
30244;DHT22;61465;53.652;9.792;2022-08-19T09:53:44;21.50;93.50
30244;DHT22;61465;53.652;9.792;2022-08-19T09:56:11;21.60;93.50
30244;DHT22;61465;53.652;9.792;2022-08-19T09:58:37;21.60;93.60
30244;DHT22;61465;53.652;9.792;2022-08-19T10:01:04;21.60;93.60
30244;DHT22;61465;53.652;9.792;2022-08-19T10:03:31;21.70;93.60
30244;DHT22;61465;53.652;9.792;2022-08-19T10:05:59;21.70;93.60
30244;DHT22;61465;53.652;9.792;2022-08-19T10:08:31;21.80;93.60
30244;DHT22;61465;53.652;9.792;2022-08-19T10:10:58;21.80;93.70
30244;DHT22;61465;53.652;9.792;2022-08-19T10:13:26;21.90;93.60
30244;DHT22;61465;53.652;9.792;2022-08-19T10:15:54;21.90;93.60
30244;DHT22;61465;53.652;9.792;2022-08-19T10:18:23;21.90;93.60
30244;DHT22;61465;53.652;9.792;2022-08-19T10:20:50;21.80;93.70
30244;DHT22;61465;53.652;9.792;2022-08-19T10:23:16;21.80;93.60
30244;DHT22;61465;53.652;9.792;2022-08-19T10:25:43;21.80;93.40
30244;DHT22;61465;53.652;9.792;2022-08-19T10:28:09;21.70;93.60
30244;DHT22;61465;53.652;9.792;2022-08-19T10:30:38;21.80;93.90
30244;DHT22;61465;53.652;9.792;2022-08-19T10:33:04;21.80;93.70
30244;DHT22;61465;53.652;9.792;2022-08-19T10:35:30;21.80;93.70
30244;DHT22;61465;53.652;9.792;2022-08-19T10:37:56;21.90;93.70
30244;DHT22;61465;53.652;9.792;2022-08-19T10:40:25;21.90;93.70
30244;DHT22;61465;53.652;9.792;2022-08-19T10:42:51;21.90;93.70
30244;DHT22;61465;53.652;9.792;2022-08-19T10:45:17;22.00;93.70
30244;DHT22;61465;53.652;9.792;2022-08-19T10:47:42;22.00;93.70
30244;DHT22;61465;53.652;9.792;2022-08-19T10:50:08;22.10;93.70
30244;DHT22;61465;53.652;9.792;2022-08-19T10:52:52;22.20;93.70
30244;DHT22;61465;53.652;9.792;2022-08-19T10:55:20;22.30;93.70
30244;DHT22;61465;53.652;9.792;2022-08-19T10:58:11;22.40;93.70
30244;DHT22;61465;53.652;9.792;2022-08-19T11:00:36;22.50;93.70
30244;DHT22;61465;53.652;9.792;2022-08-19T11:03:02;22.60;93.60
30244;DHT22;61465;53.652;9.792;2022-08-19T11:05:28;22.70;93.60
30244;DHT22;61465;53.652;9.792;2022-08-19T11:07:53;22.80;93.70
30244;DHT22;61465;53.652;9.792;2022-08-19T11:10:19;22.90;93.70
30244;DHT22;61465;53.652;9.792;2022-08-19T11:12:45;22.90;93.60
30244;DHT22;61465;53.652;9.792;2022-08-19T11:15:11;23.00;93.60
30244;DHT22;61465;53.652;9.792;2022-08-19T11:17:38;23.00;93.50
30244;DHT22;61465;53.652;9.792;2022-08-19T11:20:07;23.10;93.50
30244;DHT22;61465;53.652;9.792;2022-08-19T11:22:33;23.20;93.60
30244;DHT22;61465;53.652;9.792;2022-08-19T11:24:59;23.30;93.50
30244;DHT22;61465;53.652;9.792;2022-08-19T11:27:24;23.40;93.50
30244;DHT22;61465;53.652;9.792;2022-08-19T11:29:50;23.50;93.50
30244;DHT22;61465;53.652;9.792;2022-08-19T11:32:17;23.60;93.40
30244;DHT22;61465;53.652;9.792;2022-08-19T11:34:43;23.80;93.40
30244;DHT22;61465;53.652;9.792;2022-08-19T11:37:09;23.90;93.40
30244;DHT22;61465;53.652;9.792;2022-08-19T11:39:35;24.00;93.30
30244;DHT22;61465;53.652;9.792;2022-08-19T11:42:03;24.00;93.10
30244;DHT22;61465;53.652;9.792;2022-08-19T11:44:50;24.10;93.10
30244;DHT22;61465;53.652;9.792;2022-08-19T11:47:16;24.10;93.10
30244;DHT22;61465;53.652;9.792;2022-08-19T11:49:41;24.10;93.10
30244;DHT22;61465;53.652;9.792;2022-08-19T11:52:08;24.20;93.10
30244;DHT22;61465;53.652;9.792;2022-08-19T11:54:34;24.30;93.00
30244;DHT22;61465;53.652;9.792;2022-08-19T11:57:02;24.40;92.90
30244;DHT22;61465;53.652;9.792;2022-08-19T11:59:28;24.50;92.90
30244;DHT22;61465;53.652;9.792;2022-08-19T12:01:54;24.70;92.80
30244;DHT22;61465;53.652;9.792;2022-08-19T12:04:21;24.80;92.80
30244;DHT22;61465;53.652;9.792;2022-08-19T12:06:47;24.80;92.60
30244;DHT22;61465;53.652;9.792;2022-08-19T12:09:12;24.90;92.50
30244;DHT22;61465;53.652;9.792;2022-08-19T12:11:39;24.90;92.30
30244;DHT22;61465;53.652;9.792;2022-08-19T12:14:05;25.00;92.40
30244;DHT22;61465;53.652;9.792;2022-08-19T12:16:32;25.10;92.50
30244;DHT22;61465;53.652;9.792;2022-08-19T12:18:58;25.20;92.40
30244;DHT22;61465;53.652;9.792;2022-08-19T12:21:28;25.30;92.40
30244;DHT22;61465;53.652;9.792;2022-08-19T12:23:56;25.40;92.30
30244;DHT22;61465;53.652;9.792;2022-08-19T12:26:23;25.50;92.20
30244;DHT22;61465;53.652;9.792;2022-08-19T12:28:49;25.60;92.10
30244;DHT22;61465;53.652;9.792;2022-08-19T12:31:15;25.70;92.10
30244;DHT22;61465;53.652;9.792;2022-08-19T12:33:41;25.80;91.80
30244;DHT22;61465;53.652;9.792;2022-08-19T12:36:10;25.80;91.60
30244;DHT22;61465;53.652;9.792;2022-08-19T12:38:36;25.80;91.70
30244;DHT22;61465;53.652;9.792;2022-08-19T12:41:03;25.80;91.70
30244;DHT22;61465;53.652;9.792;2022-08-19T12:43:31;25.80;91.70
30244;DHT22;61465;53.652;9.792;2022-08-19T12:45:57;25.80;91.50
30244;DHT22;61465;53.652;9.792;2022-08-19T12:48:23;25.80;91.50
30244;DHT22;61465;53.652;9.792;2022-08-19T12:50:48;25.70;91.30
30244;DHT22;61465;53.652;9.792;2022-08-19T12:53:15;25.80;91.40
30244;DHT22;61465;53.652;9.792;2022-08-19T12:55:41;25.70;91.20
30244;DHT22;61465;53.652;9.792;2022-08-19T12:58:09;25.70;91.10
30244;DHT22;61465;53.652;9.792;2022-08-19T13:00:35;25.70;91.10
30244;DHT22;61465;53.652;9.792;2022-08-19T13:03:00;25.70;91.10
30244;DHT22;61465;53.652;9.792;2022-08-19T13:05:28;25.70;91.00
30244;DHT22;61465;53.652;9.792;2022-08-19T13:07:56;25.70;91.00
30244;DHT22;61465;53.652;9.792;2022-08-19T13:10:25;25.80;90.90
30244;DHT22;61465;53.652;9.792;2022-08-19T13:12:51;25.70;90.70
30244;DHT22;61465;53.652;9.792;2022-08-19T13:15:19;25.70;90.60
30244;DHT22;61465;53.652;9.792;2022-08-19T13:17:47;25.70;90.60
30244;DHT22;61465;53.652;9.792;2022-08-19T13:20:15;25.70;90.60
30244;DHT22;61465;53.652;9.792;2022-08-19T13:22:41;25.70;90.60
30244;DHT22;61465;53.652;9.792;2022-08-19T13:25:08;25.60;90.50
30244;DHT22;61465;53.652;9.792;2022-08-19T13:27:34;25.60;90.50
30244;DHT22;61465;53.652;9.792;2022-08-19T13:30:01;25.50;90.50
30244;DHT22;61465;53.652;9.792;2022-08-19T13:32:45;25.60;90.50
30244;DHT22;61465;53.652;9.792;2022-08-19T13:35:29;25.60;90.40
30244;DHT22;61465;53.652;9.792;2022-08-19T13:37:55;25.60;90.30
30244;DHT22;61465;53.652;9.792;2022-08-19T13:40:23;25.70;90.40
30244;DHT22;61465;53.652;9.792;2022-08-19T13:42:51;25.70;90.30
30244;DHT22;61465;53.652;9.792;2022-08-19T13:45:19;25.70;90.10
30244;DHT22;61465;53.652;9.792;2022-08-19T13:47:46;25.70;90.10
30244;DHT22;61465;53.652;9.792;2022-08-19T13:50:15;25.70;90.00
30244;DHT22;61465;53.652;9.792;2022-08-19T13:52:41;25.70;90.10
30244;DHT22;61465;53.652;9.792;2022-08-19T13:55:09;25.70;90.10
30244;DHT22;61465;53.652;9.792;2022-08-19T13:57:35;25.70;90.00
30244;DHT22;61465;53.652;9.792;2022-08-19T14:00:07;25.70;90.00
30244;DHT22;61465;53.652;9.792;2022-08-19T14:02:36;25.80;90.00
30244;DHT22;61465;53.652;9.792;2022-08-19T14:05:04;25.80;90.00
30244;DHT22;61465;53.652;9.792;2022-08-19T14:07:30;25.80;89.80
30244;DHT22;61465;53.652;9.792;2022-08-19T14:09:55;25.80;89.60
30244;DHT22;61465;53.652;9.792;2022-08-19T14:12:21;25.70;89.60
30244;DHT22;61465;53.652;9.792;2022-08-19T14:14:48;25.80;89.60
30244;DHT22;61465;53.652;9.792;2022-08-19T14:17:14;25.80;89.40
30244;DHT22;61465;53.652;9.792;2022-08-19T14:19:41;25.80;89.50
30244;DHT22;61465;53.652;9.792;2022-08-19T14:22:06;25.80;89.30
30244;DHT22;61465;53.652;9.792;2022-08-19T14:24:32;25.80;89.10
30244;DHT22;61465;53.652;9.792;2022-08-19T14:26:58;25.80;89.10
30244;DHT22;61465;53.652;9.792;2022-08-19T14:29:24;25.80;89.50
30244;DHT22;61465;53.652;9.792;2022-08-19T14:31:50;25.90;88.90
30244;DHT22;61465;53.652;9.792;2022-08-19T14:34:16;25.90;88.80
30244;DHT22;61465;53.652;9.792;2022-08-19T14:36:41;25.90;88.80
30244;DHT22;61465;53.652;9.792;2022-08-19T14:39:08;25.90;88.70
30244;DHT22;61465;53.652;9.792;2022-08-19T14:41:35;25.90;88.40
30244;DHT22;61465;53.652;9.792;2022-08-19T14:44:00;26.00;88.30
30244;DHT22;61465;53.652;9.792;2022-08-19T14:46:27;25.90;88.00
30244;DHT22;61465;53.652;9.792;2022-08-19T14:48:55;26.00;87.60
30244;DHT22;61465;53.652;9.792;2022-08-19T14:51:23;25.90;87.60
30244;DHT22;61465;53.652;9.792;2022-08-19T14:53:50;25.90;87.80
30244;DHT22;61465;53.652;9.792;2022-08-19T14:56:20;25.90;87.60
30244;DHT22;61465;53.652;9.792;2022-08-19T14:58:46;25.90;87.50
30244;DHT22;61465;53.652;9.792;2022-08-19T15:01:12;25.90;87.40
30244;DHT22;61465;53.652;9.792;2022-08-19T15:03:39;25.90;87.70
30244;DHT22;61465;53.652;9.792;2022-08-19T15:06:07;25.90;87.20
30244;DHT22;61465;53.652;9.792;2022-08-19T15:08:35;25.80;87.20
30244;DHT22;61465;53.652;9.792;2022-08-19T15:11:02;25.80;87.10
30244;DHT22;61465;53.652;9.792;2022-08-19T15:13:28;25.80;86.90
30244;DHT22;61465;53.652;9.792;2022-08-19T15:15:56;25.80;87.00
30244;DHT22;61465;53.652;9.792;2022-08-19T15:18:23;25.80;86.90
30244;DHT22;61465;53.652;9.792;2022-08-19T15:20:49;25.80;87.00
30244;DHT22;61465;53.652;9.792;2022-08-19T15:23:16;25.80;86.90
30244;DHT22;61465;53.652;9.792;2022-08-19T15:25:43;25.80;86.00
30244;DHT22;61465;53.652;9.792;2022-08-19T15:28:09;25.60;85.70
30244;DHT22;61465;53.652;9.792;2022-08-19T15:30:39;25.60;86.20
30244;DHT22;61465;53.652;9.792;2022-08-19T15:33:06;25.50;85.90
30244;DHT22;61465;53.652;9.792;2022-08-19T15:35:31;25.40;85.90
30244;DHT22;61465;53.652;9.792;2022-08-19T15:37:57;25.40;87.00
30244;DHT22;61465;53.652;9.792;2022-08-19T15:40:24;25.40;86.20
30244;DHT22;61465;53.652;9.792;2022-08-19T15:42:51;25.40;86.20